sensor_id;sensor_type;location;lat;lon;timestamp;temperature;humidity
10828;DHT22;5467;59.334;13.512;2022-11-30T00:00:54;3.00;99.90
10828;DHT22;5467;59.334;13.512;2022-11-30T00:03:21;2.90;99.90
10828;DHT22;5467;59.334;13.512;2022-11-30T00:05:48;2.90;99.90
10828;DHT22;5467;59.334;13.512;2022-11-30T00:08:15;2.90;99.90
10828;DHT22;5467;59.334;13.512;2022-11-30T00:10:43;3.00;99.90
10828;DHT22;5467;59.334;13.512;2022-11-30T00:13:10;3.00;99.90
10828;DHT22;5467;59.334;13.512;2022-11-30T00:15:37;3.00;99.90
10828;DHT22;5467;59.334;13.512;2022-11-30T00:18:05;2.90;99.90
10828;DHT22;5467;59.334;13.512;2022-11-30T00:20:32;2.90;99.90
10828;DHT22;5467;59.334;13.512;2022-11-30T00:22:59;3.00;99.90
10828;DHT22;5467;59.334;13.512;2022-11-30T00:25:26;2.90;99.90
10828;DHT22;5467;59.334;13.512;2022-11-30T00:27:53;2.90;99.90
10828;DHT22;5467;59.334;13.512;2022-11-30T00:30:20;2.80;99.90
10828;DHT22;5467;59.334;13.512;2022-11-30T00:32:47;2.90;99.90
10828;DHT22;5467;59.334;13.512;2022-11-30T00:35:15;3.00;99.90
10828;DHT22;5467;59.334;13.512;2022-11-30T00:37:43;3.00;99.90
10828;DHT22;5467;59.334;13.512;2022-11-30T00:40:11;3.10;99.90
10828;DHT22;5467;59.334;13.512;2022-11-30T00:42:38;3.10;99.90
10828;DHT22;5467;59.334;13.512;2022-11-30T00:45:06;3.10;99.90
10828;DHT22;5467;59.334;13.512;2022-11-30T00:47:33;3.10;99.90
10828;DHT22;5467;59.334;13.512;2022-11-30T00:50:00;3.00;99.90
10828;DHT22;5467;59.334;13.512;2022-11-30T00:52:29;2.90;99.90
10828;DHT22;5467;59.334;13.512;2022-11-30T00:54:56;2.90;99.90
10828;DHT22;5467;59.334;13.512;2022-11-30T00:57:23;3.00;99.90
10828;DHT22;5467;59.334;13.512;2022-11-30T00:59:50;2.90;99.90
10828;DHT22;5467;59.334;13.512;2022-11-30T01:02:17;2.80;99.90
10828;DHT22;5467;59.334;13.512;2022-11-30T01:04:44;2.90;99.90
10828;DHT22;5467;59.334;13.512;2022-11-30T01:07:11;3.00;99.90
10828;DHT22;5467;59.334;13.512;2022-11-30T01:09:39;3.00;99.90
10828;DHT22;5467;59.334;13.512;2022-11-30T01:12:06;3.10;99.90
10828;DHT22;5467;59.334;13.512;2022-11-30T01:14:33;3.10;99.90
10828;DHT22;5467;59.334;13.512;2022-11-30T01:17:00;3.20;99.90
10828;DHT22;5467;59.334;13.512;2022-11-30T01:19:27;3.20;99.90
10828;DHT22;5467;59.334;13.512;2022-11-30T01:21:54;3.20;99.90
10828;DHT22;5467;59.334;13.512;2022-11-30T01:24:21;3.00;99.90
10828;DHT22;5467;59.334;13.512;2022-11-30T01:26:49;3.00;99.90
10828;DHT22;5467;59.334;13.512;2022-11-30T01:29:16;3.10;99.90
10828;DHT22;5467;59.334;13.512;2022-11-30T01:31:43;3.00;99.90
10828;DHT22;5467;59.334;13.512;2022-11-30T01:34:10;3.00;99.90
10828;DHT22;5467;59.334;13.512;2022-11-30T01:36:37;3.10;99.90
10828;DHT22;5467;59.334;13.512;2022-11-30T01:39:07;3.10;99.90
10828;DHT22;5467;59.334;13.512;2022-11-30T01:41:35;3.00;99.90
10828;DHT22;5467;59.334;13.512;2022-11-30T01:47:23;2.90;99.90
10828;DHT22;5467;59.334;13.512;2022-11-30T01:49:53;3.00;99.90
10828;DHT22;5467;59.334;13.512;2022-11-30T01:52:23;3.00;99.90
10828;DHT22;5467;59.334;13.512;2022-11-30T01:54:55;3.10;99.90
10828;DHT22;5467;59.334;13.512;2022-11-30T01:57:28;3.20;99.90
10828;DHT22;5467;59.334;13.512;2022-11-30T02:00:00;3.00;99.90
10828;DHT22;5467;59.334;13.512;2022-11-30T02:02:36;3.00;99.90
10828;DHT22;5467;59.334;13.512;2022-11-30T02:05:05;3.00;99.90
10828;DHT22;5467;59.334;13.512;2022-11-30T02:07:33;3.00;99.90
10828;DHT22;5467;59.334;13.512;2022-11-30T02:10:00;2.90;99.90
10828;DHT22;5467;59.334;13.512;2022-11-30T02:12:36;2.90;99.90
10828;DHT22;5467;59.334;13.512;2022-11-30T02:15:09;2.90;99.90
10828;DHT22;5467;59.334;13.512;2022-11-30T02:17:46;2.90;99.90
10828;DHT22;5467;59.334;13.512;2022-11-30T02:20:36;2.80;99.90
10828;DHT22;5467;59.334;13.512;2022-11-30T02:23:27;2.90;99.90
10828;DHT22;5467;59.334;13.512;2022-11-30T02:26:03;2.90;99.90
10828;DHT22;5467;59.334;13.512;2022-11-30T02:31:39;2.90;99.90
10828;DHT22;5467;59.334;13.512;2022-11-30T02:34:10;3.00;99.90
10828;DHT22;5467;59.334;13.512;2022-11-30T02:36:38;3.00;99.90
10828;DHT22;5467;59.334;13.512;2022-11-30T02:39:06;3.00;99.90
10828;DHT22;5467;59.334;13.512;2022-11-30T02:41:36;3.00;99.90
10828;DHT22;5467;59.334;13.512;2022-11-30T02:44:05;3.10;99.90
10828;DHT22;5467;59.334;13.512;2022-11-30T02:46:41;3.00;99.90
10828;DHT22;5467;59.334;13.512;2022-11-30T02:49:15;2.80;99.90
10828;DHT22;5467;59.334;13.512;2022-11-30T02:51:43;2.90;99.90
10828;DHT22;5467;59.334;13.512;2022-11-30T02:54:11;2.90;99.90
10828;DHT22;5467;59.334;13.512;2022-11-30T02:56:38;2.90;99.90
10828;DHT22;5467;59.334;13.512;2022-11-30T02:59:06;2.90;99.90
10828;DHT22;5467;59.334;13.512;2022-11-30T03:01:33;2.90;99.90
10828;DHT22;5467;59.334;13.512;2022-11-30T03:04:01;2.90;99.90
10828;DHT22;5467;59.334;13.512;2022-11-30T03:06:27;3.00;99.90
10828;DHT22;5467;59.334;13.512;2022-11-30T03:08:54;3.00;99.90
10828;DHT22;5467;59.334;13.512;2022-11-30T03:11:21;3.00;99.90
10828;DHT22;5467;59.334;13.512;2022-11-30T03:13:50;3.00;99.90
10828;DHT22;5467;59.334;13.512;2022-11-30T03:16:18;3.00;99.90
10828;DHT22;5467;59.334;13.512;2022-11-30T03:18:45;3.00;99.90
10828;DHT22;5467;59.334;13.512;2022-11-30T03:21:12;3.10;99.90
10828;DHT22;5467;59.334;13.512;2022-11-30T03:23:39;3.00;99.90
10828;DHT22;5467;59.334;13.512;2022-11-30T03:26:07;3.00;99.90
10828;DHT22;5467;59.334;13.512;2022-11-30T03:28:35;3.10;99.90
10828;DHT22;5467;59.334;13.512;2022-11-30T03:31:02;3.00;99.90
10828;DHT22;5467;59.334;13.512;2022-11-30T03:33:31;3.00;99.90
10828;DHT22;5467;59.334;13.512;2022-11-30T03:35:59;3.00;99.90
10828;DHT22;5467;59.334;13.512;2022-11-30T03:38:26;3.00;99.90
10828;DHT22;5467;59.334;13.512;2022-11-30T03:40:59;3.00;99.90
10828;DHT22;5467;59.334;13.512;2022-11-30T03:43:26;3.10;99.90
10828;DHT22;5467;59.334;13.512;2022-11-30T03:45:54;3.20;99.90
10828;DHT22;5467;59.334;13.512;2022-11-30T03:48:21;3.00;99.90
10828;DHT22;5467;59.334;13.512;2022-11-30T03:50:50;3.00;99.90
10828;DHT22;5467;59.334;13.512;2022-11-30T03:53:18;3.00;99.90
10828;DHT22;5467;59.334;13.512;2022-11-30T03:55:50;3.10;99.90
10828;DHT22;5467;59.334;13.512;2022-11-30T03:58:18;3.00;99.90
10828;DHT22;5467;59.334;13.512;2022-11-30T04:00:45;3.00;99.90
10828;DHT22;5467;59.334;13.512;2022-11-30T04:03:12;2.90;99.90
10828;DHT22;5467;59.334;13.512;2022-11-30T04:05:39;3.10;99.90
10828;DHT22;5467;59.334;13.512;2022-11-30T04:08:07;3.10;99.90
10828;DHT22;5467;59.334;13.512;2022-11-30T04:10:34;2.90;99.90
10828;DHT22;5467;59.334;13.512;2022-11-30T04:13:01;2.90;99.90
10828;DHT22;5467;59.334;13.512;2022-11-30T04:15:28;2.90;99.90
10828;DHT22;5467;59.334;13.512;2022-11-30T04:17:55;2.90;99.90
10828;DHT22;5467;59.334;13.512;2022-11-30T04:20:22;3.00;99.90
10828;DHT22;5467;59.334;13.512;2022-11-30T04:22:50;3.00;99.90
10828;DHT22;5467;59.334;13.512;2022-11-30T04:25:18;3.00;99.90
10828;DHT22;5467;59.334;13.512;2022-11-30T04:27:45;3.10;99.90
10828;DHT22;5467;59.334;13.512;2022-11-30T04:30:13;3.20;99.90
10828;DHT22;5467;59.334;13.512;2022-11-30T04:32:40;3.10;99.90
10828;DHT22;5467;59.334;13.512;2022-11-30T04:35:08;3.10;99.90
10828;DHT22;5467;59.334;13.512;2022-11-30T04:37:35;3.00;99.90
10828;DHT22;5467;59.334;13.512;2022-11-30T04:40:03;3.00;99.90
10828;DHT22;5467;59.334;13.512;2022-11-30T04:42:32;3.10;99.90
10828;DHT22;5467;59.334;13.512;2022-11-30T04:44:59;3.00;99.90
10828;DHT22;5467;59.334;13.512;2022-11-30T04:47:27;3.00;99.90
10828;DHT22;5467;59.334;13.512;2022-11-30T04:49:54;2.90;99.90
10828;DHT22;5467;59.334;13.512;2022-11-30T04:52:21;3.00;99.90
10828;DHT22;5467;59.334;13.512;2022-11-30T04:54:48;3.10;99.90
10828;DHT22;5467;59.334;13.512;2022-11-30T04:57:16;3.00;99.90
10828;DHT22;5467;59.334;13.512;2022-11-30T04:59:44;3.00;99.90
10828;DHT22;5467;59.334;13.512;2022-11-30T05:02:11;3.00;99.90
10828;DHT22;5467;59.334;13.512;2022-11-30T05:04:38;3.00;99.90
10828;DHT22;5467;59.334;13.512;2022-11-30T05:07:05;3.10;99.90
10828;DHT22;5467;59.334;13.512;2022-11-30T05:09:33;3.20;99.90
10828;DHT22;5467;59.334;13.512;2022-11-30T05:12:00;3.00;99.90
10828;DHT22;5467;59.334;13.512;2022-11-30T05:14:27;2.90;99.90
10828;DHT22;5467;59.334;13.512;2022-11-30T05:16:55;3.00;99.90
10828;DHT22;5467;59.334;13.512;2022-11-30T05:19:22;2.90;99.90
10828;DHT22;5467;59.334;13.512;2022-11-30T05:21:49;2.80;99.90
10828;DHT22;5467;59.334;13.512;2022-11-30T05:24:16;2.80;99.90
10828;DHT22;5467;59.334;13.512;2022-11-30T05:26:43;2.80;99.90
10828;DHT22;5467;59.334;13.512;2022-11-30T05:29:10;2.80;99.90
10828;DHT22;5467;59.334;13.512;2022-11-30T05:31:37;3.00;99.90
10828;DHT22;5467;59.334;13.512;2022-11-30T05:34:06;2.90;99.90
10828;DHT22;5467;59.334;13.512;2022-11-30T05:36:33;2.90;99.90
10828;DHT22;5467;59.334;13.512;2022-11-30T05:39:00;2.90;99.90
10828;DHT22;5467;59.334;13.512;2022-11-30T05:41:27;2.80;99.90
10828;DHT22;5467;59.334;13.512;2022-11-30T05:43:55;2.80;99.90
10828;DHT22;5467;59.334;13.512;2022-11-30T05:46:22;2.80;99.90
10828;DHT22;5467;59.334;13.512;2022-11-30T05:48:49;2.80;99.90
10828;DHT22;5467;59.334;13.512;2022-11-30T05:51:18;2.80;99.90
10828;DHT22;5467;59.334;13.512;2022-11-30T05:53:46;2.80;99.90
10828;DHT22;5467;59.334;13.512;2022-11-30T05:56:16;2.80;99.90
10828;DHT22;5467;59.334;13.512;2022-11-30T05:58:44;2.90;99.90
10828;DHT22;5467;59.334;13.512;2022-11-30T06:01:17;2.90;99.90
10828;DHT22;5467;59.334;13.512;2022-11-30T06:03:44;2.80;99.90
10828;DHT22;5467;59.334;13.512;2022-11-30T06:06:11;2.80;99.90
10828;DHT22;5467;59.334;13.512;2022-11-30T06:08:40;2.80;99.90
10828;DHT22;5467;59.334;13.512;2022-11-30T06:11:07;2.90;99.90
10828;DHT22;5467;59.334;13.512;2022-11-30T06:13:34;3.00;99.90
10828;DHT22;5467;59.334;13.512;2022-11-30T06:16:02;3.00;99.90
10828;DHT22;5467;59.334;13.512;2022-11-30T06:18:30;2.90;99.90
10828;DHT22;5467;59.334;13.512;2022-11-30T06:20:59;2.80;99.90
10828;DHT22;5467;59.334;13.512;2022-11-30T06:23:27;2.90;99.90
10828;DHT22;5467;59.334;13.512;2022-11-30T06:25:55;2.90;99.90
10828;DHT22;5467;59.334;13.512;2022-11-30T06:28:22;2.90;99.90
10828;DHT22;5467;59.334;13.512;2022-11-30T06:30:49;2.90;99.90
10828;DHT22;5467;59.334;13.512;2022-11-30T06:33:21;2.90;99.90
10828;DHT22;5467;59.334;13.512;2022-11-30T06:35:48;2.90;99.90
10828;DHT22;5467;59.334;13.512;2022-11-30T06:38:15;3.00;99.90
10828;DHT22;5467;59.334;13.512;2022-11-30T06:40:43;3.00;99.90
10828;DHT22;5467;59.334;13.512;2022-11-30T06:43:11;3.10;99.90
10828;DHT22;5467;59.334;13.512;2022-11-30T06:45:38;3.10;99.90
10828;DHT22;5467;59.334;13.512;2022-11-30T06:48:05;2.90;99.90
10828;DHT22;5467;59.334;13.512;2022-11-30T06:50:32;3.00;99.90
10828;DHT22;5467;59.334;13.512;2022-11-30T06:52:59;3.00;99.90
10828;DHT22;5467;59.334;13.512;2022-11-30T06:55:26;3.10;99.90
10828;DHT22;5467;59.334;13.512;2022-11-30T06:58:03;3.10;99.90
10828;DHT22;5467;59.334;13.512;2022-11-30T07:00:32;3.00;99.90
10828;DHT22;5467;59.334;13.512;2022-11-30T07:02:59;3.00;99.90
10828;DHT22;5467;59.334;13.512;2022-11-30T07:05:27;3.00;99.90
10828;DHT22;5467;59.334;13.512;2022-11-30T07:07:54;3.00;99.90
10828;DHT22;5467;59.334;13.512;2022-11-30T07:10:21;2.90;99.90
10828;DHT22;5467;59.334;13.512;2022-11-30T07:12:48;2.80;99.90
10828;DHT22;5467;59.334;13.512;2022-11-30T07:15:16;2.80;99.90
10828;DHT22;5467;59.334;13.512;2022-11-30T07:17:44;2.80;99.90
10828;DHT22;5467;59.334;13.512;2022-11-30T07:20:11;2.90;99.90
10828;DHT22;5467;59.334;13.512;2022-11-30T07:22:38;2.80;99.90
10828;DHT22;5467;59.334;13.512;2022-11-30T07:25:06;2.80;99.90
10828;DHT22;5467;59.334;13.512;2022-11-30T07:27:50;2.80;99.90
10828;DHT22;5467;59.334;13.512;2022-11-30T07:30:17;2.70;99.90
10828;DHT22;5467;59.334;13.512;2022-11-30T07:32:46;2.70;99.90
10828;DHT22;5467;59.334;13.512;2022-11-30T07:35:13;2.90;99.90
10828;DHT22;5467;59.334;13.512;2022-11-30T07:37:40;3.00;99.90
10828;DHT22;5467;59.334;13.512;2022-11-30T07:40:07;2.90;99.90
10828;DHT22;5467;59.334;13.512;2022-11-30T07:42:34;2.90;99.90
10828;DHT22;5467;59.334;13.512;2022-11-30T07:45:01;3.00;99.90
10828;DHT22;5467;59.334;13.512;2022-11-30T07:47:28;2.90;99.90
10828;DHT22;5467;59.334;13.512;2022-11-30T07:49:57;2.70;99.90
10828;DHT22;5467;59.334;13.512;2022-11-30T07:52:24;2.70;99.90
10828;DHT22;5467;59.334;13.512;2022-11-30T07:54:51;2.80;99.90
10828;DHT22;5467;59.334;13.512;2022-11-30T07:57:18;3.00;99.90
10828;DHT22;5467;59.334;13.512;2022-11-30T07:59:45;2.80;99.90
10828;DHT22;5467;59.334;13.512;2022-11-30T08:02:12;2.80;99.90
10828;DHT22;5467;59.334;13.512;2022-11-30T08:04:38;2.70;99.90
10828;DHT22;5467;59.334;13.512;2022-11-30T08:07:07;2.80;99.90
10828;DHT22;5467;59.334;13.512;2022-11-30T08:09:34;2.80;99.90
10828;DHT22;5467;59.334;13.512;2022-11-30T08:12:01;2.80;99.90
10828;DHT22;5467;59.334;13.512;2022-11-30T08:14:28;2.80;99.90
10828;DHT22;5467;59.334;13.512;2022-11-30T08:16:55;3.00;99.90
10828;DHT22;5467;59.334;13.512;2022-11-30T08:19:22;3.00;99.90
10828;DHT22;5467;59.334;13.512;2022-11-30T08:21:49;3.00;99.90
10828;DHT22;5467;59.334;13.512;2022-11-30T08:24:17;3.10;99.90
10828;DHT22;5467;59.334;13.512;2022-11-30T08:26:44;2.90;99.90
10828;DHT22;5467;59.334;13.512;2022-11-30T08:29:11;3.00;99.90
10828;DHT22;5467;59.334;13.512;2022-11-30T08:31:38;3.10;99.90
10828;DHT22;5467;59.334;13.512;2022-11-30T08:34:08;3.10;99.90
10828;DHT22;5467;59.334;13.512;2022-11-30T08:36:35;3.10;99.90
10828;DHT22;5467;59.334;13.512;2022-11-30T08:39:04;3.00;99.90
10828;DHT22;5467;59.334;13.512;2022-11-30T08:41:33;3.20;99.90
10828;DHT22;5467;59.334;13.512;2022-11-30T08:44:01;3.00;99.90
10828;DHT22;5467;59.334;13.512;2022-11-30T08:46:28;2.90;99.90
10828;DHT22;5467;59.334;13.512;2022-11-30T08:48:54;2.90;99.90
10828;DHT22;5467;59.334;13.512;2022-11-30T08:51:21;2.90;99.90
10828;DHT22;5467;59.334;13.512;2022-11-30T08:53:48;3.00;99.90
10828;DHT22;5467;59.334;13.512;2022-11-30T08:56:17;2.90;99.90
10828;DHT22;5467;59.334;13.512;2022-11-30T08:58:46;2.90;99.90
10828;DHT22;5467;59.334;13.512;2022-11-30T09:01:15;2.80;99.90
10828;DHT22;5467;59.334;13.512;2022-11-30T09:03:44;2.80;99.90
10828;DHT22;5467;59.334;13.512;2022-11-30T09:06:13;2.80;99.90
10828;DHT22;5467;59.334;13.512;2022-11-30T09:08:41;2.80;99.90
10828;DHT22;5467;59.334;13.512;2022-11-30T09:11:09;2.80;99.90
10828;DHT22;5467;59.334;13.512;2022-11-30T09:13:37;3.00;99.90
10828;DHT22;5467;59.334;13.512;2022-11-30T09:16:06;3.00;99.90
10828;DHT22;5467;59.334;13.512;2022-11-30T09:18:33;3.10;99.90
10828;DHT22;5467;59.334;13.512;2022-11-30T09:21:02;3.10;99.90
10828;DHT22;5467;59.334;13.512;2022-11-30T09:23:29;3.00;99.90
10828;DHT22;5467;59.334;13.512;2022-11-30T09:25:57;3.00;99.90
10828;DHT22;5467;59.334;13.512;2022-11-30T09:28:24;2.90;99.90
10828;DHT22;5467;59.334;13.512;2022-11-30T09:30:52;2.90;99.90
10828;DHT22;5467;59.334;13.512;2022-11-30T09:33:20;3.00;99.90
10828;DHT22;5467;59.334;13.512;2022-11-30T09:35:54;3.20;99.90
10828;DHT22;5467;59.334;13.512;2022-11-30T09:38:22;3.00;99.90
10828;DHT22;5467;59.334;13.512;2022-11-30T09:40:53;3.00;99.90
10828;DHT22;5467;59.334;13.512;2022-11-30T09:43:35;3.00;99.90
10828;DHT22;5467;59.334;13.512;2022-11-30T09:46:06;3.00;99.90
10828;DHT22;5467;59.334;13.512;2022-11-30T09:48:54;2.90;99.90
10828;DHT22;5467;59.334;13.512;2022-11-30T09:51:25;2.90;99.90
10828;DHT22;5467;59.334;13.512;2022-11-30T09:53:56;2.90;99.90
10828;DHT22;5467;59.334;13.512;2022-11-30T09:56:26;2.90;99.90
10828;DHT22;5467;59.334;13.512;2022-11-30T09:58:56;2.90;99.90
10828;DHT22;5467;59.334;13.512;2022-11-30T10:01:25;3.00;99.90
10828;DHT22;5467;59.334;13.512;2022-11-30T10:03:54;3.00;99.90
10828;DHT22;5467;59.334;13.512;2022-11-30T10:06:27;2.90;99.90
10828;DHT22;5467;59.334;13.512;2022-11-30T10:09:11;3.00;99.90
10828;DHT22;5467;59.334;13.512;2022-11-30T10:11:49;3.00;99.90
10828;DHT22;5467;59.334;13.512;2022-11-30T10:17:21;3.00;99.90
10828;DHT22;5467;59.334;13.512;2022-11-30T10:20:03;3.20;99.90
10828;DHT22;5467;59.334;13.512;2022-11-30T10:22:45;3.20;99.90
10828;DHT22;5467;59.334;13.512;2022-11-30T10:25:20;3.10;99.90
10828;DHT22;5467;59.334;13.512;2022-11-30T10:27:49;3.10;99.90
10828;DHT22;5467;59.334;13.512;2022-11-30T10:30:18;3.20;99.90
10828;DHT22;5467;59.334;13.512;2022-11-30T10:32:51;3.30;99.90
10828;DHT22;5467;59.334;13.512;2022-11-30T10:35:32;3.30;99.90
10828;DHT22;5467;59.334;13.512;2022-11-30T10:38:03;3.20;99.90
10828;DHT22;5467;59.334;13.512;2022-11-30T10:40:36;3.10;99.90
10828;DHT22;5467;59.334;13.512;2022-11-30T10:43:17;3.10;99.90
10828;DHT22;5467;59.334;13.512;2022-11-30T10:45:48;3.20;99.90
10828;DHT22;5467;59.334;13.512;2022-11-30T10:48:19;3.10;99.90
10828;DHT22;5467;59.334;13.512;2022-11-30T10:50:47;3.10;99.90
10828;DHT22;5467;59.334;13.512;2022-11-30T10:53:15;3.20;99.90
10828;DHT22;5467;59.334;13.512;2022-11-30T10:55:44;3.20;99.90
10828;DHT22;5467;59.334;13.512;2022-11-30T10:58:21;3.20;99.90
10828;DHT22;5467;59.334;13.512;2022-11-30T11:00:54;3.10;99.90
10828;DHT22;5467;59.334;13.512;2022-11-30T11:03:25;3.00;99.90
10828;DHT22;5467;59.334;13.512;2022-11-30T11:06:11;3.00;99.90
10828;DHT22;5467;59.334;13.512;2022-11-30T11:08:39;3.10;99.90
10828;DHT22;5467;59.334;13.512;2022-11-30T11:11:26;3.20;99.90
10828;DHT22;5467;59.334;13.512;2022-11-30T11:14:08;3.20;99.90
10828;DHT22;5467;59.334;13.512;2022-11-30T11:16:54;3.10;99.90
10828;DHT22;5467;59.334;13.512;2022-11-30T11:19:24;3.20;99.90
10828;DHT22;5467;59.334;13.512;2022-11-30T11:21:52;3.20;99.90
10828;DHT22;5467;59.334;13.512;2022-11-30T11:24:25;3.10;99.90
10828;DHT22;5467;59.334;13.512;2022-11-30T11:26:53;3.20;99.90
10828;DHT22;5467;59.334;13.512;2022-11-30T11:29:23;3.20;99.90
10828;DHT22;5467;59.334;13.512;2022-11-30T11:32:13;3.20;99.90
10828;DHT22;5467;59.334;13.512;2022-11-30T11:34:41;3.00;99.90
10828;DHT22;5467;59.334;13.512;2022-11-30T11:37:18;3.00;99.90
10828;DHT22;5467;59.334;13.512;2022-11-30T11:40:00;2.90;99.90
10828;DHT22;5467;59.334;13.512;2022-11-30T11:42:30;3.00;99.90
10828;DHT22;5467;59.334;13.512;2022-11-30T11:44:59;2.90;99.90
10828;DHT22;5467;59.334;13.512;2022-11-30T11:47:31;2.90;99.90
10828;DHT22;5467;59.334;13.512;2022-11-30T11:50:22;2.90;99.90
10828;DHT22;5467;59.334;13.512;2022-11-30T11:53:10;2.90;99.90
10828;DHT22;5467;59.334;13.512;2022-11-30T11:55:40;3.00;99.90
10828;DHT22;5467;59.334;13.512;2022-11-30T11:58:13;2.90;99.90
10828;DHT22;5467;59.334;13.512;2022-11-30T12:00:43;2.90;99.90
10828;DHT22;5467;59.334;13.512;2022-11-30T12:03:17;3.00;99.90
10828;DHT22;5467;59.334;13.512;2022-11-30T12:05:47;3.10;99.90
10828;DHT22;5467;59.334;13.512;2022-11-30T12:08:24;3.10;99.90
10828;DHT22;5467;59.334;13.512;2022-11-30T12:10:59;3.10;99.90
10828;DHT22;5467;59.334;13.512;2022-11-30T12:13:31;3.20;99.90
10828;DHT22;5467;59.334;13.512;2022-11-30T12:16:06;3.30;99.90
10828;DHT22;5467;59.334;13.512;2022-11-30T12:18:40;3.40;99.90
10828;DHT22;5467;59.334;13.512;2022-11-30T12:21:14;3.50;99.90
10828;DHT22;5467;59.334;13.512;2022-11-30T12:23:56;3.40;99.90
10828;DHT22;5467;59.334;13.512;2022-11-30T12:26:33;3.50;99.90
10828;DHT22;5467;59.334;13.512;2022-11-30T12:29:18;3.40;99.90
10828;DHT22;5467;59.334;13.512;2022-11-30T12:31:59;3.40;99.90
10828;DHT22;5467;59.334;13.512;2022-11-30T12:34:37;3.40;99.90
10828;DHT22;5467;59.334;13.512;2022-11-30T12:37:13;3.30;99.90
10828;DHT22;5467;59.334;13.512;2022-11-30T12:39:52;3.30;99.90
10828;DHT22;5467;59.334;13.512;2022-11-30T12:42:28;3.20;99.90
10828;DHT22;5467;59.334;13.512;2022-11-30T12:45:03;3.20;99.90
10828;DHT22;5467;59.334;13.512;2022-11-30T12:47:42;3.10;99.90
10828;DHT22;5467;59.334;13.512;2022-11-30T12:50:22;3.20;99.90
10828;DHT22;5467;59.334;13.512;2022-11-30T12:52:56;3.20;99.90
10828;DHT22;5467;59.334;13.512;2022-11-30T12:55:33;3.20;99.90
10828;DHT22;5467;59.334;13.512;2022-11-30T12:58:10;3.20;99.90
10828;DHT22;5467;59.334;13.512;2022-11-30T13:00:49;3.20;99.90
10828;DHT22;5467;59.334;13.512;2022-11-30T13:03:37;3.20;99.90
10828;DHT22;5467;59.334;13.512;2022-11-30T13:06:10;3.30;99.90
10828;DHT22;5467;59.334;13.512;2022-11-30T13:08:48;3.30;99.90
10828;DHT22;5467;59.334;13.512;2022-11-30T13:11:21;3.30;99.90
10828;DHT22;5467;59.334;13.512;2022-11-30T13:13:52;3.20;99.90
10828;DHT22;5467;59.334;13.512;2022-11-30T13:16:22;3.30;99.90
10828;DHT22;5467;59.334;13.512;2022-11-30T13:18:53;3.40;99.90
10828;DHT22;5467;59.334;13.512;2022-11-30T13:21:27;3.30;99.90
10828;DHT22;5467;59.334;13.512;2022-11-30T13:24:00;3.40;99.90
10828;DHT22;5467;59.334;13.512;2022-11-30T13:26:37;3.40;99.90
10828;DHT22;5467;59.334;13.512;2022-11-30T13:29:16;3.40;99.90
10828;DHT22;5467;59.334;13.512;2022-11-30T13:31:52;3.40;99.90
10828;DHT22;5467;59.334;13.512;2022-11-30T13:34:25;3.40;99.90
10828;DHT22;5467;59.334;13.512;2022-11-30T13:37:01;3.40;99.90
10828;DHT22;5467;59.334;13.512;2022-11-30T13:39:43;3.50;99.90
10828;DHT22;5467;59.334;13.512;2022-11-30T13:42:31;3.50;99.90
10828;DHT22;5467;59.334;13.512;2022-11-30T13:45:23;3.50;99.90
10828;DHT22;5467;59.334;13.512;2022-11-30T13:47:52;3.30;99.90
10828;DHT22;5467;59.334;13.512;2022-11-30T13:50:24;3.30;99.90
10828;DHT22;5467;59.334;13.512;2022-11-30T13:53:20;3.30;99.90
10828;DHT22;5467;59.334;13.512;2022-11-30T13:55:59;3.50;99.90
10828;DHT22;5467;59.334;13.512;2022-11-30T13:58:29;3.50;99.90
10828;DHT22;5467;59.334;13.512;2022-11-30T14:04:28;3.40;99.90
10828;DHT22;5467;59.334;13.512;2022-11-30T14:06:56;3.40;99.90
10828;DHT22;5467;59.334;13.512;2022-11-30T14:09:58;3.50;99.90
10828;DHT22;5467;59.334;13.512;2022-11-30T14:12:56;3.40;99.90
10828;DHT22;5467;59.334;13.512;2022-11-30T14:15:50;3.40;99.90
10828;DHT22;5467;59.334;13.512;2022-11-30T14:18:39;3.30;99.90
10828;DHT22;5467;59.334;13.512;2022-11-30T14:21:15;3.20;99.90
10828;DHT22;5467;59.334;13.512;2022-11-30T14:23:49;3.30;99.90
10828;DHT22;5467;59.334;13.512;2022-11-30T14:26:20;3.30;99.90
10828;DHT22;5467;59.334;13.512;2022-11-30T14:28:52;3.20;99.90
10828;DHT22;5467;59.334;13.512;2022-11-30T14:31:26;3.20;99.90
10828;DHT22;5467;59.334;13.512;2022-11-30T14:33:56;3.20;99.90
10828;DHT22;5467;59.334;13.512;2022-11-30T14:36:27;3.30;99.90
10828;DHT22;5467;59.334;13.512;2022-11-30T14:38:58;3.30;99.90
10828;DHT22;5467;59.334;13.512;2022-11-30T14:41:26;3.30;99.90
10828;DHT22;5467;59.334;13.512;2022-11-30T14:44:09;3.30;99.90
10828;DHT22;5467;59.334;13.512;2022-11-30T14:46:39;3.20;99.90
10828;DHT22;5467;59.334;13.512;2022-11-30T14:49:12;3.10;99.90
10828;DHT22;5467;59.334;13.512;2022-11-30T14:51:42;3.10;99.90
10828;DHT22;5467;59.334;13.512;2022-11-30T14:54:26;3.10;99.90
10828;DHT22;5467;59.334;13.512;2022-11-30T14:57:01;3.10;99.90
10828;DHT22;5467;59.334;13.512;2022-11-30T14:59:44;3.10;99.90
10828;DHT22;5467;59.334;13.512;2022-11-30T15:02:19;3.20;99.90
10828;DHT22;5467;59.334;13.512;2022-11-30T15:04:47;3.20;99.90
10828;DHT22;5467;59.334;13.512;2022-11-30T15:07:15;3.20;99.90
10828;DHT22;5467;59.334;13.512;2022-11-30T15:09:44;3.40;99.90
10828;DHT22;5467;59.334;13.512;2022-11-30T15:12:16;3.20;99.90
10828;DHT22;5467;59.334;13.512;2022-11-30T15:15:06;3.10;99.90
10828;DHT22;5467;59.334;13.512;2022-11-30T15:17:48;3.10;99.90
10828;DHT22;5467;59.334;13.512;2022-11-30T15:20:18;3.10;99.90
10828;DHT22;5467;59.334;13.512;2022-11-30T15:22:45;3.10;99.90
10828;DHT22;5467;59.334;13.512;2022-11-30T15:25:13;3.10;99.90
10828;DHT22;5467;59.334;13.512;2022-11-30T15:27:40;3.10;99.90
10828;DHT22;5467;59.334;13.512;2022-11-30T15:30:13;3.10;99.90
10828;DHT22;5467;59.334;13.512;2022-11-30T15:32:44;3.00;99.90
10828;DHT22;5467;59.334;13.512;2022-11-30T15:35:23;3.00;99.90
10828;DHT22;5467;59.334;13.512;2022-11-30T15:37:51;3.00;99.90
10828;DHT22;5467;59.334;13.512;2022-11-30T15:40:30;3.00;99.90
10828;DHT22;5467;59.334;13.512;2022-11-30T15:43:00;3.00;99.90
10828;DHT22;5467;59.334;13.512;2022-11-30T15:45:29;3.00;99.90
10828;DHT22;5467;59.334;13.512;2022-11-30T15:47:58;3.00;99.90
10828;DHT22;5467;59.334;13.512;2022-11-30T15:50:38;3.10;99.90
10828;DHT22;5467;59.334;13.512;2022-11-30T15:53:30;3.10;99.90
10828;DHT22;5467;59.334;13.512;2022-11-30T15:56:00;3.10;99.90
10828;DHT22;5467;59.334;13.512;2022-11-30T15:58:37;3.20;99.90
10828;DHT22;5467;59.334;13.512;2022-11-30T16:01:12;3.20;99.90
10828;DHT22;5467;59.334;13.512;2022-11-30T16:04:04;3.10;99.90
10828;DHT22;5467;59.334;13.512;2022-11-30T16:06:36;3.10;99.90
10828;DHT22;5467;59.334;13.512;2022-11-30T16:09:14;3.10;99.90
10828;DHT22;5467;59.334;13.512;2022-11-30T16:11:43;3.00;99.90
10828;DHT22;5467;59.334;13.512;2022-11-30T16:14:14;3.00;99.90
10828;DHT22;5467;59.334;13.512;2022-11-30T16:16:41;3.10;99.90
10828;DHT22;5467;59.334;13.512;2022-11-30T16:19:10;3.30;99.90
10828;DHT22;5467;59.334;13.512;2022-11-30T16:21:37;3.30;99.90